Time;durP1;ratioP1;P1;durP2;ratioP2;P2;SDS_P1;SDS_P2;PMS_P1;PMS_P2;Temp;Humidity;BMP_temperature;BMP_pressure;BME280_temperature;BME280_humidity;BME280_pressure;Samples;Min_cycle;Max_cycle;Signal;HPM_P1;HPM_P2
2023/11/10 00:02:19;;;;;;;11.88;5.80;;;;;;;8.98;75.61;99199.72;5035380;28;20754;-37
2023/11/10 00:04:48;;;;;;;10.90;5.47;;;;;;;8.93;75.86;99205.06;5037177;28;20517;-38
2023/11/10 00:07:14;;;;;;;10.32;5.35;;;;;;;8.96;75.79;99206.69;5036710;28;20397;-38
2023/11/10 00:09:40;;;;;;;16.65;6.82;;;;;;;8.97;75.88;99208.38;5029958;28;20037;-38
2023/11/10 00:12:06;;;;;;;14.82;6.40;;;;;;;8.97;75.84;99207.53;5033468;28;20117;-38
2023/11/10 00:14:33;;;;;;;11.38;6.03;;;;;;;9.00;75.84;99212.63;5037252;28;20044;-39
2023/11/10 00:16:59;;;;;;;13.88;5.88;;;;;;;8.93;75.80;99192.09;5035136;28;20468;-39
2023/11/10 00:19:24;;;;;;;11.75;6.25;;;;;;;8.97;75.62;99207.53;5040013;28;20041;-38
2023/11/10 00:21:50;;;;;;;14.40;6.45;;;;;;;8.98;75.82;99204.06;5038078;28;20044;-38
2023/11/10 00:24:16;;;;;;;14.00;6.63;;;;;;;8.90;75.84;99197.38;5034779;28;20768;-38
2023/11/10 00:26:42;;;;;;;10.15;5.78;;;;;;;9.03;75.46;99207.31;5038046;28;20033;-37
2023/11/10 00:29:08;;;;;;;12.05;6.07;;;;;;;9.02;75.80;99214.25;5033028;28;20425;-37
2023/11/10 00:31:34;;;;;;;11.82;6.68;;;;;;;8.84;75.38;99187.25;5034590;28;20045;-38
2023/11/10 00:34:01;;;;;;;14.57;7.10;;;;;;;8.96;75.22;99209.28;5034265;28;20113;-37
2023/11/10 00:36:26;;;;;;;13.82;7.30;;;;;;;8.96;75.18;99213.63;5039083;28;20111;-38
2023/11/10 00:38:52;;;;;;;13.95;6.80;;;;;;;8.98;75.17;99210.09;5036915;28;20041;-38
2023/11/10 00:41:21;;;;;;;14.05;6.35;;;;;;;9.02;75.56;99213.41;5029241;28;20042;-37
2023/11/10 00:43:49;;;;;;;17.48;7.28;;;;;;;9.04;75.54;99214.22;5035263;28;20054;-39
2023/11/10 00:46:15;;;;;;;14.07;6.53;;;;;;;9.01;75.36;99207.38;5032805;28;20041;-38
2023/11/10 00:48:41;;;;;;;13.77;6.22;;;;;;;8.98;75.38;99206.66;5018817;28;20083;-38
2023/11/10 00:51:07;;;;;;;13.38;6.70;;;;;;;9.08;76.19;99219.22;5034643;28;20085;-38
2023/11/10 00:53:33;;;;;;;12.45;6.78;;;;;;;9.10;75.85;99216.59;5037579;28;20060;-38
2023/11/10 00:55:59;;;;;;;14.18;6.47;;;;;;;9.09;76.05;99223.53;5039687;28;20041;-39
2023/11/10 00:58:25;;;;;;;13.55;6.20;;;;;;;9.10;76.06;99220.03;5042480;28;20037;-38
2023/11/10 01:00:51;;;;;;;13.43;6.90;;;;;;;9.08;75.67;99228.75;5031427;28;20049;-38
2023/11/10 01:03:17;;;;;;;14.55;6.60;;;;;;;9.09;75.96;99228.72;5032175;28;20540;-36
2023/11/10 01:05:46;;;;;;;17.15;6.22;;;;;;;9.10;76.64;99227.81;5033628;28;20037;-38
2023/11/10 01:08:12;;;;;;;13.32;6.30;;;;;;;9.05;76.70;99232.31;5036738;28;20049;-37
2023/11/10 01:10:37;;;;;;;11.98;5.85;;;;;;;9.06;76.60;99235.72;5036266;28;20597;-40
2023/11/10 01:13:03;;;;;;;13.77;6.03;;;;;;;9.04;76.99;99233.22;5043334;28;20053;-39
2023/11/10 01:15:30;;;;;;;13.50;5.75;;;;;;;8.95;77.61;99236.09;5049832;28;20041;-37
2023/11/10 01:17:56;;;;;;;13.23;6.25;;;;;;;8.77;77.88;99213.44;5051016;28;20106;-38
2023/11/10 01:20:22;;;;;;;13.63;6.05;;;;;;;8.94;77.98;99234.44;5033456;28;20037;-37
2023/11/10 01:22:48;;;;;;;11.60;6.03;;;;;;;8.96;77.99;99240.41;5033286;28;20095;-39
2023/11/10 01:25:14;;;;;;;11.50;6.40;;;;;;;8.95;78.51;99241.28;5017767;28;20045;-38
2023/11/10 01:27:43;;;;;;;11.60;5.75;;;;;;;8.79;78.23;99209.88;5051024;28;20055;-37
2023/11/10 01:30:10;;;;;;;11.65;5.70;;;;;;;9.03;78.35;99239.28;5032746;28;20048;-39
2023/11/10 01:32:37;;;;;;;14.25;5.80;;;;;;;9.03;78.40;99231.50;5033977;28;20148;-38
2023/11/10 01:35:04;;;;;;;12.05;6.93;;;;;;;8.85;78.40;99206.22;5035762;28;20401;-38
2023/11/10 01:37:31;;;;;;;12.90;6.80;;;;;;;9.02;78.64;99236.75;5037192;28;20072;-37
2023/11/10 01:39:57;;;;;;;11.57;5.70;;;;;;;8.99;78.83;99240.31;5023134;28;20405;-39
2023/11/10 01:42:23;;;;;;;12.55;5.90;;;;;;;8.97;78.78;99244.69;5050493;28;20049;-38
2023/11/10 01:44:49;;;;;;;9.45;5.05;;;;;;;8.97;78.89;99242.09;5033863;28;20052;-39
2023/11/10 01:47:16;;;;;;;11.55;5.35;;;;;;;8.97;78.62;99247.28;5043898;28;20144;-38
2023/11/10 01:49:43;;;;;;;11.63;6.20;;;;;;;9.00;78.69;99249.78;5034029;28;20532;-43
2023/11/10 01:52:08;;;;;;;12.20;5.25;;;;;;;9.00;78.31;99248.94;5032765;28;20033;-38
2023/11/10 01:54:36;;;;;;;10.18;5.13;;;;;;;8.99;78.97;99245.50;5034227;28;20049;-37
2023/11/10 01:57:05;;;;;;;13.57;6.25;;;;;;;9.04;78.86;99243.59;5050460;28;20041;-37
2023/11/10 01:59:33;;;;;;;12.25;6.03;;;;;;;9.06;79.07;99253.88;5032958;28;20045;-39
2023/11/10 02:02:00;;;;;;;9.20;5.43;;;;;;;8.89;78.70;99236.34;5036920;28;20424;-38
2023/11/10 02:04:26;;;;;;;9.30;5.60;;;;;;;9.05;78.93;99262.59;5029143;28;20044;-38
2023/11/10 02:06:52;;;;;;;10.05;4.90;;;;;;;8.97;78.67;99262.84;5035361;28;20037;-38
2023/11/10 02:09:18;;;;;;;9.85;4.68;;;;;;;8.91;78.85;99265.63;5048607;28;20497;-38
2023/11/10 02:11:45;;;;;;;12.10;5.10;;;;;;;8.82;79.36;99261.63;5033930;28;20041;-37
2023/11/10 02:14:12;;;;;;;9.70;4.95;;;;;;;8.81;79.28;99270.28;5032389;28;20045;-38
2023/11/10 02:16:40;;;;;;;8.82;5.03;;;;;;;8.79;79.28;99269.47;5050389;28;20132;-38
2023/11/10 02:19:07;;;;;;;11.45;5.40;;;;;;;8.84;79.17;99266.75;5046626;28;20060;-38
2023/11/10 02:21:33;;;;;;;11.98;4.93;;;;;;;8.87;79.05;99282.19;5032521;28;20528;-39
2023/11/10 02:24:02;;;;;;;8.80;4.63;;;;;;;8.90;79.67;99276.91;5050052;28;20057;-38
2023/11/10 02:26:28;;;;;;;9.90;5.05;;;;;;;8.95;79.40;99292.31;5058845;28;20037;-38
2023/11/10 02:28:54;;;;;;;8.05;4.30;;;;;;;8.91;78.54;99282.03;5038493;28;20048;-37
2023/11/10 02:31:20;;;;;;;12.52;5.63;;;;;;;8.65;79.03;99253.56;5035146;28;20136;-37
2023/11/10 02:33:47;;;;;;;8.68;4.90;;;;;;;8.71;79.43;99260.28;5048742;28;20199;-38
2023/11/10 02:36:13;;;;;;;7.97;4.32;;;;;;;8.90;79.17;99292.44;5026100;28;20047;-37
2023/11/10 02:38:42;;;;;;;10.02;4.40;;;;;;;8.77;78.70;99266.13;5040446;28;20551;-37
2023/11/10 02:41:09;;;;;;;7.95;4.40;;;;;;;8.81;79.00;99280.66;5033111;28;20048;-38
2023/11/10 02:43:35;;;;;;;9.85;4.90;;;;;;;8.86;78.64;99278.75;5025525;28;20118;-39
2023/11/10 02:46:02;;;;;;;9.15;4.53;;;;;;;8.98;78.66;99302.56;5034106;28;20517;-36
2023/11/10 02:48:29;;;;;;;9.55;4.43;;;;;;;9.02;78.42;99296.38;5029943;28;20046;-37
2023/11/10 02:50:55;;;;;;;9.90;4.30;;;;;;;9.05;78.47;99297.13;5031139;28;20041;-37
2023/11/10 02:53:21;;;;;;;8.25;4.00;;;;;;;9.06;78.35;99301.41;5035396;28;20049;-37
2023/11/10 02:55:47;;;;;;;8.13;4.55;;;;;;;9.02;78.46;99305.00;5033064;28;20433;-37
2023/11/10 02:58:13;;;;;;;7.65;4.60;;;;;;;9.02;78.51;99305.00;5033730;28;20041;-38
2023/11/10 03:00:40;;;;;;;7.40;4.53;;;;;;;8.99;77.97;99299.09;5031848;28;20128;-37
2023/11/10 03:03:07;;;;;;;5.15;3.45;;;;;;;8.93;78.48;99302.72;5032306;28;20073;-37
2023/11/10 03:05:34;;;;;;;7.95;4.47;;;;;;;8.94;78.38;99309.63;5033050;28;20159;-38
2023/11/10 03:08:00;;;;;;;7.38;3.83;;;;;;;9.02;77.93;99310.19;5031971;28;20038;-37
2023/11/10 03:10:26;;;;;;;9.20;4.20;;;;;;;9.05;78.26;99310.09;5014177;28;20087;-38
2023/11/10 03:12:52;;;;;;;7.38;3.60;;;;;;;9.10;78.08;99315.97;5033024;28;20045;-39
2023/11/10 03:15:17;;;;;;;6.40;3.70;;;;;;;8.91;77.56;99271.66;5032321;28;20482;-37
2023/11/10 03:17:44;;;;;;;6.60;4.20;;;;;;;8.82;77.65;99256.44;5033552;28;20053;-38
2023/11/10 03:20:12;;;;;;;5.60;3.55;;;;;;;9.15;78.18;99311.47;5047538;28;20053;-38
2023/11/10 03:22:38;;;;;;;6.15;3.70;;;;;;;9.16;77.35;99304.56;5034135;28;20527;-38
2023/11/10 03:25:05;;;;;;;5.78;4.32;;;;;;;9.12;77.90;99308.13;5049039;28;20131;-38
2023/11/10 03:27:32;;;;;;;9.45;3.67;;;;;;;9.13;77.40;99302.03;5032427;28;20041;-38
2023/11/10 03:29:58;;;;;;;7.47;4.15;;;;;;;9.10;77.32;99303.00;5030401;28;20139;-38
2023/11/10 03:32:24;;;;;;;6.78;3.65;;;;;;;9.11;77.57;99314.22;5033368;28;20183;-38
2023/11/10 03:34:50;;;;;;;7.10;3.92;;;;;;;9.08;77.54;99314.31;5032161;28;20083;-38
2023/11/10 03:37:17;;;;;;;8.95;4.10;;;;;;;9.07;77.17;99323.00;5027411;28;20037;-38
2023/11/10 03:39:43;;;;;;;7.20;3.72;;;;;;;9.09;77.51;99318.63;5033016;28;20029;-38
2023/11/10 03:42:09;;;;;;;7.65;4.88;;;;;;;9.06;77.39;99319.56;5032814;28;20090;-37
2023/11/10 03:44:36;;;;;;;10.63;3.70;;;;;;;9.05;77.54;99317.03;5033337;28;20425;-38
2023/11/10 03:47:02;;;;;;;5.00;3.45;;;;;;;9.10;77.35;99321.16;5032671;28;20137;-38
2023/11/10 03:49:28;;;;;;;4.03;2.97;;;;;;;8.96;77.18;99301.75;5048716;28;20487;-38
2023/11/10 03:51:54;;;;;;;5.72;2.95;;;;;;;9.11;76.72;99332.34;5030703;28;20045;-37
2023/11/10 03:54:19;;;;;;;8.63;4.40;;;;;;;9.10;76.88;99328.09;5030751;28;20057;-38
2023/11/10 03:56:46;;;;;;;7.13;3.78;;;;;;;9.12;77.09;99332.31;5039953;28;20041;-37
2023/11/10 03:59:12;;;;;;;6.03;3.25;;;;;;;9.14;76.89;99343.50;5032933;28;20052;-41
2023/11/10 04:01:39;;;;;;;3.72;2.30;;;;;;;9.04;76.98;99342.13;5032784;28;20041;-38
2023/11/10 04:04:07;;;;;;;7.00;2.72;;;;;;;8.81;77.13;99339.41;5032956;28;20087;-38
2023/11/10 04:06:34;;;;;;;5.43;3.70;;;;;;;8.53;77.06;99300.59;5033365;28;20053;-37
2023/11/10 04:09:00;;;;;;;5.85;3.22;;;;;;;8.85;77.08;99349.63;5032241;28;20575;-36
2023/11/10 04:11:27;;;;;;;5.22;2.67;;;;;;;8.84;77.16;99349.72;5028225;28;20052;-38
2023/11/10 04:13:53;;;;;;;4.55;2.80;;;;;;;8.70;77.05;99347.53;5033032;28;20041;-38
2023/11/10 04:16:21;;;;;;;8.18;2.80;;;;;;;8.63;77.48;99353.00;5031825;28;20547;-37
2023/11/10 04:18:49;;;;;;;4.65;2.75;;;;;;;8.50;77.92;99335.22;5028596;28;20183;-39
2023/11/10 04:21:21;;;;;;;12.77;6.85;;;;;;;8.56;78.37;99365.28;5032534;28;20493;-38
2023/11/10 04:23:48;;;;;;;6.47;3.33;;;;;;;8.23;77.94;99306.72;5024772;28;20406;-38
2023/11/10 04:26:14;;;;;;;6.03;3.10;;;;;;;8.59;77.86;99361.72;5043187;28;20505;-38
2023/11/10 04:28:41;;;;;;;4.50;2.85;;;;;;;8.58;77.82;99368.69;5047363;28;20123;-38
2023/11/10 04:31:11;;;;;;;6.30;3.38;;;;;;;8.53;77.70;99365.34;5031511;28;20132;-38
2023/11/10 04:33:37;;;;;;;4.05;2.67;;;;;;;8.50;77.78;99366.31;5029903;28;20044;-38
2023/11/10 04:36:07;;;;;;;6.40;3.65;;;;;;;8.44;77.90;99370.84;5031883;28;20433;-36
2023/11/10 04:38:33;;;;;;;5.22;2.92;;;;;;;8.45;77.83;99382.91;5032723;28;20044;-38
2023/11/10 04:41:01;;;;;;;5.97;2.72;;;;;;;8.32;77.81;99368.63;5031874;28;20040;-37
2023/11/10 04:43:27;;;;;;;4.55;2.20;;;;;;;8.33;77.32;99371.16;5049361;28;20041;-38
2023/11/10 04:45:53;;;;;;;6.78;3.00;;;;;;;8.31;77.30;99391.09;5036475;28;20115;-38
2023/11/10 04:48:19;;;;;;;4.20;2.72;;;;;;;8.26;77.30;99371.38;5050522;28;20037;-37
2023/11/10 04:50:45;;;;;;;4.32;2.60;;;;;;;8.47;76.77;99391.47;5053695;28;20532;-37
2023/11/10 04:53:13;;;;;;;4.90;2.90;;;;;;;8.38;76.95;99400.34;5043519;28;20052;-36
2023/11/10 04:55:40;;;;;;;4.18;2.60;;;;;;;8.44;76.84;99414.88;5038165;28;20520;-37
2023/11/10 04:58:06;;;;;;;3.05;2.00;;;;;;;8.28;76.98;99418.78;5054115;28;20045;-39
2023/11/10 05:00:33;;;;;;;4.28;2.33;;;;;;;7.98;77.47;99413.59;5055581;28;20112;-38
2023/11/10 05:03:06;;;;;;;5.90;2.70;;;;;;;7.87;78.06;99418.22;5038365;28;20074;-38
2023/11/10 05:05:34;;;;;;;5.47;2.70;;;;;;;7.94;78.25;99419.75;5038804;28;20044;-38
2023/11/10 05:08:01;;;;;;;7.40;3.28;;;;;;;7.76;77.95;99378.84;5036444;28;20046;-38
2023/11/10 05:10:28;;;;;;;5.07;2.65;;;;;;;8.09;77.58;99428.81;5023393;28;20524;-38
2023/11/10 05:12:54;;;;;;;3.15;2.03;;;;;;;8.12;77.07;99433.06;5037247;28;20068;-39
2023/11/10 05:15:20;;;;;;;5.65;2.75;;;;;;;8.04;77.27;99433.28;5038542;28;20037;-37
2023/11/10 05:17:46;;;;;;;7.32;4.05;;;;;;;8.15;77.27;99426.06;5038864;28;20048;-38
2023/11/10 05:20:13;;;;;;;7.57;3.20;;;;;;;8.22;76.85;99430.16;5020835;28;20041;-38
2023/11/10 05:22:40;;;;;;;9.43;2.92;;;;;;;8.33;76.70;99440.25;5027092;28;20448;-39
2023/11/10 05:25:07;;;;;;;6.25;3.28;;;;;;;8.22;76.30;99413.75;5037810;28;20045;-39
2023/11/10 05:27:33;;;;;;;9.02;3.70;;;;;;;8.49;76.22;99442.34;5037747;28;20443;-39
2023/11/10 05:29:59;;;;;;;6.25;2.58;;;;;;;8.55;75.87;99443.03;5038369;28;20084;-38
2023/11/10 05:32:26;;;;;;;7.30;2.90;;;;;;;8.55;75.22;99445.63;5053398;28;20538;-39
2023/11/10 05:34:54;;;;;;;7.88;2.72;;;;;;;8.57;75.00;99449.91;5038442;28;20045;-38
2023/11/10 05:37:24;;;;;;;4.82;2.65;;;;;;;8.55;75.20;99453.41;5040380;28;20583;-38
2023/11/10 05:39:53;;;;;;;4.18;2.40;;;;;;;8.48;74.47;99465.69;5035348;28;20037;-38
2023/11/10 05:42:21;;;;;;;;;;;;;;;8.30;74.21;99472.28;5054220;28;20500;-39
2023/11/10 05:44:48;;;;;;;6.32;3.28;;;;;;;8.31;74.03;99466.19;5054165;28;20015;-38
2023/11/10 05:47:14;;;;;;;4.35;2.08;;;;;;;8.29;74.05;99464.50;5034671;28;20528;-37
2023/11/10 05:49:41;;;;;;;4.68;2.40;;;;;;;8.21;73.61;99466.47;5051918;28;20076;-37
2023/11/10 05:52:09;;;;;;;4.50;2.72;;;;;;;8.02;73.52;99468.72;5035352;28;20045;-38
2023/11/10 05:54:36;;;;;;;3.97;2.78;;;;;;;8.03;73.70;99468.69;5033459;28;20418;-37
2023/11/10 05:57:02;;;;;;;5.20;3.15;;;;;;;8.13;73.58;99478.78;5041728;28;20045;-38
2023/11/10 05:59:28;;;;;;;5.22;2.40;;;;;;;8.18;73.46;99476.91;5039004;28;20037;-39
2023/11/10 06:01:57;;;;;;;5.55;2.60;;;;;;;8.26;73.15;99475.81;5044315;28;20040;-39
2023/11/10 06:04:23;;;;;;;7.17;2.53;;;;;;;8.14;73.15;99458.03;5035215;28;20045;-39
2023/11/10 06:06:50;;;;;;;6.63;2.97;;;;;;;8.20;72.35;99480.31;5035594;28;20420;-37
2023/11/10 06:09:16;;;;;;;7.43;4.03;;;;;;;8.19;72.19;99463.06;5034868;28;20033;-38
2023/11/10 06:11:44;;;;;;;10.73;4.13;;;;;;;8.25;72.29;99462.91;5035561;28;20045;-37
2023/11/10 06:14:11;;;;;;;6.10;2.47;;;;;;;8.42;71.63;99487.47;5035271;28;20090;-38
2023/11/10 06:16:40;;;;;;;5.07;1.70;;;;;;;8.46;71.17;99490.81;5034814;28;20041;-38
2023/11/10 06:19:07;;;;;;;;;;;;;;;8.32;71.01;99501.53;5031815;28;20402;-38
2023/11/10 06:21:33;;;;;;;6.45;2.80;;;;;;;8.21;71.37;99497.53;5033566;28;19955;-38
2023/11/10 06:24:00;;;;;;;7.32;2.88;;;;;;;8.25;71.26;99491.38;5035911;28;20131;-39
2023/11/10 06:26:26;;;;;;;4.28;2.40;;;;;;;8.28;71.36;99497.31;5034037;28;20064;-37
2023/11/10 06:28:52;;;;;;;6.40;3.03;;;;;;;8.19;71.34;99496.72;5045593;28;20132;-39
2023/11/10 06:31:23;;;;;;;3.42;2.35;;;;;;;8.07;71.32;99498.75;5034737;28;20432;-37
2023/11/10 06:33:49;;;;;;;6.72;2.47;;;;;;;7.97;70.67;99478.34;5031976;28;20553;-38
2023/11/10 06:36:19;;;;;;;4.70;2.63;;;;;;;8.14;70.57;99512.41;5033742;28;20136;-38
2023/11/10 06:38:46;;;;;;;5.22;2.42;;;;;;;7.95;70.49;99487.91;5040265;28;20039;-37
2023/11/10 06:41:14;;;;;;;4.45;2.60;;;;;;;8.02;70.49;99486.81;5045529;28;20502;-38
2023/11/10 06:43:42;;;;;;;5.05;2.67;;;;;;;8.18;70.47;99518.34;5028836;28;20112;-39
2023/11/10 06:46:09;;;;;;;6.05;2.78;;;;;;;8.25;70.47;99528.50;5044918;28;20048;-46
2023/11/10 06:48:36;;;;;;;6.20;3.30;;;;;;;8.39;70.10;99535.91;5043095;28;20118;-37
2023/11/10 06:51:03;;;;;;;7.55;2.90;;;;;;;8.32;70.05;99530.03;5048050;28;20135;-45
2023/11/10 06:53:29;;;;;;;5.20;3.58;;;;;;;8.32;70.11;99532.63;5046988;28;20531;-43
2023/11/10 06:55:56;;;;;;;6.55;3.10;;;;;;;8.43;69.96;99535.78;5046628;28;20067;-37
2023/11/10 06:58:22;;;;;;;9.00;3.20;;;;;;;8.39;69.91;99535.91;5045460;28;20114;-38
2023/11/10 07:00:49;;;;;;;5.38;2.47;;;;;;;8.42;69.62;99534.09;5043572;28;20175;-38
2023/11/10 07:03:18;;;;;;;7.22;3.33;;;;;;;8.33;70.08;99536.91;5036337;28;20053;-38
2023/11/10 07:05:44;;;;;;;14.40;3.22;;;;;;;8.45;70.45;99540.91;5048944;28;20037;-38
2023/11/10 07:08:11;;;;;;;5.55;3.13;;;;;;;8.49;69.94;99539.94;5049714;28;20045;-38
2023/11/10 07:10:44;;;;;;;6.25;2.92;;;;;;;8.19;70.29;99536.44;5051806;28;20084;-39
2023/11/10 07:13:11;;;;;;;5.43;3.20;;;;;;;8.19;70.51;99541.59;5037265;28;20045;-38
2023/11/10 07:15:38;;;;;;;4.88;2.90;;;;;;;8.29;70.55;99539.59;5030965;28;20057;-38
2023/11/10 07:18:04;;;;;;;7.70;3.70;;;;;;;8.54;70.35;99544.97;5044656;28;20029;-38
2023/11/10 07:20:30;;;;;;;14.18;3.00;;;;;;;8.72;69.88;99547.06;5032770;28;20037;-38
2023/11/10 07:23:00;;;;;;;6.55;3.25;;;;;;;8.71;69.94;99553.97;5031099;28;20134;-38
2023/11/10 07:25:26;;;;;;;;;;;;;;;8.53;69.68;99549.31;5034603;28;20039;-39
2023/11/10 07:27:54;;;;;;;3.28;2.47;;;;;;;8.44;70.10;99554.75;5036657;28;20316;-38
2023/11/10 07:30:21;;;;;;;4.40;2.85;;;;;;;8.21;70.53;99559.69;5055528;28;20051;-39
2023/11/10 07:32:49;;;;;;;7.35;2.92;;;;;;;8.00;70.75;99530.91;5051115;28;20044;-40
2023/11/10 07:35:18;;;;;;;5.07;3.03;;;;;;;7.98;71.28;99524.91;5041881;28;20105;-38
2023/11/10 07:37:45;;;;;;;5.13;2.92;;;;;;;8.04;71.79;99550.63;5030620;28;20518;-38
2023/11/10 07:40:13;;;;;;;4.28;2.70;;;;;;;7.97;71.93;99549.09;5047019;28;20550;-38
2023/11/10 07:42:43;;;;;;;6.85;2.95;;;;;;;8.08;72.12;99559.16;5046319;28;20033;-39
2023/11/10 07:45:16;;;;;;;5.03;2.95;;;;;;;8.08;71.94;99565.19;5057436;28;20097;-39
2023/11/10 07:47:43;;;;;;;4.88;2.75;;;;;;;8.13;71.96;99564.22;5051686;28;20607;-38
2023/11/10 07:50:10;;;;;;;5.07;2.60;;;;;;;7.94;71.68;99532.78;5049903;28;20102;-38
2023/11/10 07:52:39;;;;;;;4.85;2.70;;;;;;;8.11;71.89;99571.19;5050743;28;20120;-37
2023/11/10 07:55:06;;;;;;;4.38;2.63;;;;;;;8.15;71.84;99570.22;5050300;28;20103;-37
2023/11/10 07:57:33;;;;;;;7.03;3.00;;;;;;;8.34;71.77;99568.84;5050253;28;20041;-37
2023/11/10 08:00:00;;;;;;;3.28;2.50;;;;;;;8.28;71.21;99538.75;5046971;28;20080;-37
2023/11/10 08:02:26;;;;;;;5.68;2.58;;;;;;;8.42;70.58;99572.09;5049029;28;20128;-39
2023/11/10 08:04:52;;;;;;;5.68;3.22;;;;;;;8.39;70.66;99578.19;5051489;28;20531;-38
2023/11/10 08:07:19;;;;;;;6.95;3.00;;;;;;;8.58;70.30;99575.97;5053446;28;20037;-38
2023/11/10 08:09:47;;;;;;;3.42;2.10;;;;;;;8.45;69.80;99551.28;5043380;28;20764;-37
2023/11/10 08:12:14;;;;;;;3.60;2.45;;;;;;;8.45;69.75;99580.63;5041005;28;20045;-37
2023/11/10 08:14:40;;;;;;;6.53;2.78;;;;;;;8.38;69.90;99578.22;5031659;28;20068;-38
2023/11/10 08:17:07;;;;;;;7.63;2.58;;;;;;;8.23;70.36;99583.78;5032612;28;20041;-38
2023/11/10 08:19:33;;;;;;;6.43;3.47;;;;;;;8.12;71.03;99584.06;5035373;28;20064;-39
2023/11/10 08:22:00;;;;;;;7.72;3.25;;;;;;;8.25;70.70;99582.03;5032945;28;20047;-37
2023/11/10 08:24:27;;;;;;;7.57;3.75;;;;;;;8.33;70.29;99580.97;5023486;28;20059;-38
2023/11/10 08:26:55;;;;;;;8.07;3.65;;;;;;;8.50;70.42;99586.53;5052066;28;20076;-38
2023/11/10 08:29:21;;;;;;;4.50;2.60;;;;;;;8.52;70.07;99563.19;5032993;28;20049;-37
2023/11/10 08:31:49;;;;;;;6.47;4.38;;;;;;;8.61;69.74;99593.16;5032188;28;20436;-39
2023/11/10 08:34:15;;;;;;;5.53;3.30;;;;;;;8.53;69.52;99580.41;5035045;28;20049;-39
2023/11/10 08:36:42;;;;;;;7.35;3.80;;;;;;;8.52;69.89;99591.69;5038407;28;20040;-39
2023/11/10 08:39:08;;;;;;;7.90;3.70;;;;;;;8.63;69.76;99589.66;5052876;28;20033;-37
2023/11/10 08:41:34;;;;;;;8.35;4.05;;;;;;;8.49;69.90;99568.44;5046329;28;20106;-38
2023/11/10 08:44:03;;;;;;;7.05;2.92;;;;;;;8.33;70.27;99601.69;5037021;28;20419;-37
2023/11/10 08:46:32;;;;;;;4.13;3.03;;;;;;;8.02;71.42;99599.00;5042928;28;20167;-38
2023/11/10 08:48:59;;;;;;;7.60;3.78;;;;;;;7.85;72.36;99592.56;5052732;28;20049;-38
2023/11/10 08:51:26;;;;;;;12.90;4.50;;;;;;;7.77;73.01;99584.13;5033935;28;20076;-38
2023/11/10 08:53:52;;;;;;;9.00;4.32;;;;;;;7.91;73.27;99589.81;5032505;28;20053;-40
2023/11/10 08:56:18;;;;;;;7.47;4.47;;;;;;;8.04;72.77;99588.63;5030219;28;20646;-37
2023/11/10 08:58:44;;;;;;;10.95;3.80;;;;;;;8.14;72.53;99590.06;5039990;28;20698;-37
2023/11/10 09:01:11;;;;;;;8.65;4.32;;;;;;;8.04;72.20;99565.31;5033032;28;20536;-37
2023/11/10 09:03:36;;;;;;;7.78;3.67;;;;;;;7.90;72.22;99538.94;5039468;28;20515;-38
2023/11/10 09:06:02;;;;;;;6.85;3.63;;;;;;;8.18;72.29;99588.25;5031206;28;20094;-37
2023/11/10 09:08:28;;;;;;;10.30;3.60;;;;;;;8.22;72.61;99582.09;5037003;28;20048;-37
2023/11/10 09:10:54;;;;;;;12.32;4.20;;;;;;;8.31;72.07;99590.53;5046354;28;20037;-38
2023/11/10 09:13:20;;;;;;;8.20;4.43;;;;;;;8.37;71.92;99586.94;5029519;28;20509;-37
2023/11/10 09:15:46;;;;;;;12.60;5.25;;;;;;;8.48;71.85;99585.72;5026870;28;20038;-38
2023/11/10 09:18:13;;;;;;;11.32;4.30;;;;;;;8.74;71.18;99590.16;5026804;28;20033;-37
2023/11/10 09:20:39;;;;;;;9.02;3.95;;;;;;;8.88;70.79;99587.19;5040482;28;20083;-38
2023/11/10 09:23:05;;;;;;;7.28;3.40;;;;;;;8.82;70.78;99592.56;5031744;28;20216;-36
2023/11/10 09:25:31;;;;;;;12.30;3.75;;;;;;;8.78;70.76;99590.94;5028664;28;20198;-38
2023/11/10 09:27:57;;;;;;;6.25;3.33;;;;;;;8.96;70.45;99580.03;5031092;28;20045;-38
2023/11/10 09:30:26;;;;;;;8.25;3.47;;;;;;;9.09;70.12;99585.72;5033834;28;20477;-39
2023/11/10 09:32:53;;;;;;;6.40;3.50;;;;;;;8.98;70.22;99583.44;5035263;28;20045;-37
2023/11/10 09:35:19;;;;;;;5.68;3.63;;;;;;;8.92;70.38;99591.41;5035424;28;20517;-38
2023/11/10 09:37:48;;;;;;;6.75;3.75;;;;;;;8.84;69.88;99559.69;5036908;28;20485;-38
2023/11/10 09:40:21;;;;;;;8.57;4.03;;;;;;;9.12;69.99;99583.03;5034747;28;20067;-37
2023/11/10 09:42:47;;;;;;;6.28;2.60;;;;;;;8.98;69.49;99592.97;5037621;28;20041;-37
2023/11/10 09:45:15;;;;;;;6.68;4.32;;;;;;;8.91;69.98;99579.31;5042440;28;20098;-37
2023/11/10 09:47:42;;;;;;;8.45;3.88;;;;;;;8.99;69.99;99592.94;5038189;28;20033;-37
2023/11/10 09:50:13;;;;;;;10.23;3.63;;;;;;;8.96;70.01;99593.00;5030440;28;20428;-38
2023/11/10 09:52:40;;;;;;;5.93;3.30;;;;;;;8.84;70.17;99591.63;5050876;28;20118;-37
2023/11/10 09:55:07;;;;;;;6.15;3.75;;;;;;;8.79;70.62;99592.66;5035357;28;20071;-38
2023/11/10 09:57:33;;;;;;;8.82;4.10;;;;;;;8.66;70.64;99568.81;5032554;28;20041;-36
2023/11/10 10:00:00;;;;;;;7.93;3.92;;;;;;;8.81;70.30;99606.41;5032804;28;20567;-38
2023/11/10 10:02:27;;;;;;;8.48;3.92;;;;;;;8.74;71.06;99591.94;5053753;28;20040;-36
2023/11/10 10:04:53;;;;;;;7.30;3.67;;;;;;;8.86;70.78;99599.34;5034026;28;20227;-37
2023/11/10 10:07:19;;;;;;;7.68;3.80;;;;;;;8.66;71.17;99602.50;5035146;28;20555;-38
2023/11/10 10:09:45;;;;;;;8.50;3.53;;;;;;;8.23;71.58;99540.63;5035078;28;20049;-38
2023/11/10 10:12:13;;;;;;;7.28;3.63;;;;;;;8.63;71.82;99601.75;5034835;28;20095;-37
2023/11/10 10:14:39;;;;;;;16.27;4.00;;;;;;;8.66;71.68;99596.47;5034056;28;20083;-38
2023/11/10 10:17:07;;;;;;;11.50;4.47;;;;;;;8.70;71.59;99598.94;5034045;28;20561;-37
2023/11/10 10:19:33;;;;;;;11.65;3.97;;;;;;;8.75;71.61;99593.63;5035069;28;20079;-37
2023/11/10 10:21:59;;;;;;;10.27;5.10;;;;;;;8.77;71.27;99597.88;5031878;28;20064;-37
2023/11/10 10:24:26;;;;;;;9.93;3.92;;;;;;;8.73;71.80;99595.41;5030199;28;20266;-38
2023/11/10 10:26:52;;;;;;;6.97;3.63;;;;;;;8.76;71.60;99608.28;5034738;28;20043;-39
2023/11/10 10:29:18;;;;;;;7.57;3.90;;;;;;;8.55;71.97;99601.09;5049638;28;20045;-38
2023/11/10 10:31:48;;;;;;;9.75;4.20;;;;;;;8.31;72.41;99571.53;5042674;28;20037;-39
2023/11/10 10:34:17;;;;;;;;;;;;;;;8.49;72.94;99596.94;5051907;28;20116;-37
2023/11/10 10:36:44;;;;;;;7.03;4.03;;;;;;;8.56;72.88;99603.66;5032077;28;19925;-38
2023/11/10 10:39:15;;;;;;;7.93;4.80;;;;;;;8.61;72.77;99599.19;5033960;28;20037;-37
2023/11/10 10:41:42;;;;;;;8.50;3.78;;;;;;;8.60;72.63;99597.50;5030776;28;20033;-37
2023/11/10 10:44:09;;;;;;;8.75;3.75;;;;;;;8.48;73.09;99595.22;5043336;28;20570;-39
2023/11/10 10:46:37;;;;;;;14.68;4.60;;;;;;;8.53;73.08;99600.31;5039833;28;20172;-38
2023/11/10 10:49:06;;;;;;;9.07;4.67;;;;;;;8.58;73.04;99608.81;5030700;28;20481;-39
2023/11/10 10:51:37;;;;;;;12.25;4.57;;;;;;;8.56;72.46;99577.75;5033704;28;20347;-35
2023/11/10 10:54:06;;;;;;;8.75;4.30;;;;;;;8.85;72.47;99602.81;5027015;28;20507;-38
2023/11/10 10:56:40;;;;;;;10.60;4.22;;;;;;;8.86;71.94;99607.97;5000590;28;20041;-38
2023/11/10 10:59:07;;;;;;;14.27;4.80;;;;;;;8.70;72.09;99579.94;5036973;28;20042;-39
2023/11/10 11:01:36;;;;;;;5.70;2.83;;;;;;;8.71;71.86;99577.31;5021917;28;20495;-36
2023/11/10 11:04:09;;;;;;;;;;;;;;;8.75;72.45;99610.03;5035154;28;20045;-37
2023/11/10 11:07:00;;;;;;;7.70;3.72;;;;;;;8.76;72.43;99616.91;5049116;28;19921;-37
2023/11/10 11:09:34;;;;;;;8.93;4.75;;;;;;;8.77;72.22;99613.44;5038510;28;20044;-37
2023/11/10 11:12:20;;;;;;;9.93;4.43;;;;;;;8.85;71.92;99613.19;5030619;28;20092;-37
2023/11/10 11:15:22;;;;;;;9.00;4.10;;;;;;;8.81;72.41;99614.19;5051104;28;20119;-39
2023/11/10 11:17:58;;;;;;;15.45;5.10;;;;;;;8.82;72.32;99621.94;5041981;28;20037;-37
2023/11/10 11:20:25;;;;;;;7.30;4.22;;;;;;;8.69;72.86;99615.38;5037887;28;20076;-38
2023/11/10 11:22:51;;;;;;;11.25;4.55;;;;;;;8.66;72.86;99623.25;5048460;28;20041;-40
2023/11/10 11:25:18;;;;;;;10.05;4.65;;;;;;;8.63;73.19;99605.19;5033102;28;20103;-37
2023/11/10 11:27:44;;;;;;;9.10;4.95;;;;;;;8.73;72.99;99617.00;5033107;28;20040;-39
2023/11/10 11:30:12;;;;;;;8.07;4.13;;;;;;;8.56;72.76;99582.94;5035926;28;20102;-37
2023/11/10 11:32:40;;;;;;;8.82;3.78;;;;;;;8.85;72.79;99611.47;5030651;28;20049;-37
2023/11/10 11:35:11;;;;;;;7.63;4.30;;;;;;;8.93;72.56;99619.03;5032406;28;20424;-38
2023/11/10 11:37:37;;;;;;;8.95;4.65;;;;;;;8.89;72.39;99620.00;5035252;28;20065;-39
2023/11/10 11:40:07;;;;;;;6.30;3.97;;;;;;;8.85;72.64;99615.78;5048497;28;20072;-38
2023/11/10 11:42:35;;;;;;;8.70;3.80;;;;;;;8.79;72.71;99627.19;5051998;28;20125;-38